sensor_id;sensor_type;location;lat;lon;timestamp;P1;durP1;ratioP1;P2;durP2;ratioP2
54123;SDS011;55741;53.252;5.788;2022-07-25T00:00:53;8.05;;;7.10;;
54123;SDS011;55741;53.252;5.788;2022-07-25T00:03:19;8.50;;;6.60;;
54123;SDS011;55741;53.252;5.788;2022-07-25T00:05:47;8.60;;;6.50;;
54123;SDS011;55741;53.252;5.788;2022-07-25T00:08:12;10.73;;;6.95;;
54123;SDS011;55741;53.252;5.788;2022-07-25T00:10:38;9.70;;;7.60;;
54123;SDS011;55741;53.252;5.788;2022-07-25T00:13:04;7.35;;;6.50;;
54123;SDS011;55741;53.252;5.788;2022-07-25T00:15:30;11.50;;;7.28;;
54123;SDS011;55741;53.252;5.788;2022-07-25T00:17:56;10.90;;;7.68;;
54123;SDS011;55741;53.252;5.788;2022-07-25T00:20:22;7.40;;;6.60;;
54123;SDS011;55741;53.252;5.788;2022-07-25T00:22:47;8.40;;;7.60;;
54123;SDS011;55741;53.252;5.788;2022-07-25T00:25:13;10.18;;;7.70;;
54123;SDS011;55741;53.252;5.788;2022-07-25T00:27:39;9.98;;;6.82;;
54123;SDS011;55741;53.252;5.788;2022-07-25T00:30:05;7.50;;;6.80;;
54123;SDS011;55741;53.252;5.788;2022-07-25T00:32:31;11.63;;;7.25;;
54123;SDS011;55741;53.252;5.788;2022-07-25T00:34:57;10.10;;;7.20;;
54123;SDS011;55741;53.252;5.788;2022-07-25T00:37:23;9.10;;;6.57;;
54123;SDS011;55741;53.252;5.788;2022-07-25T00:39:49;6.93;;;6.22;;
54123;SDS011;55741;53.252;5.788;2022-07-25T00:42:14;9.18;;;7.45;;
54123;SDS011;55741;53.252;5.788;2022-07-25T00:44:40;10.60;;;6.60;;
54123;SDS011;55741;53.252;5.788;2022-07-25T00:47:06;7.68;;;6.63;;
54123;SDS011;55741;53.252;5.788;2022-07-25T00:49:32;6.95;;;5.90;;
54123;SDS011;55741;53.252;5.788;2022-07-25T00:51:58;8.13;;;6.50;;
54123;SDS011;55741;53.252;5.788;2022-07-25T00:54:25;9.15;;;6.57;;
54123;SDS011;55741;53.252;5.788;2022-07-25T00:56:51;7.20;;;6.32;;
54123;SDS011;55741;53.252;5.788;2022-07-25T00:59:16;9.23;;;8.18;;
54123;SDS011;55741;53.252;5.788;2022-07-25T01:01:43;9.18;;;8.38;;
54123;SDS011;55741;53.252;5.788;2022-07-25T01:04:12;9.38;;;8.25;;
54123;SDS011;55741;53.252;5.788;2022-07-25T01:06:41;11.02;;;8.98;;
54123;SDS011;55741;53.252;5.788;2022-07-25T01:09:07;9.77;;;8.70;;
54123;SDS011;55741;53.252;5.788;2022-07-25T01:11:33;10.70;;;8.85;;
54123;SDS011;55741;53.252;5.788;2022-07-25T01:13:59;9.95;;;8.07;;
54123;SDS011;55741;53.252;5.788;2022-07-25T01:16:25;11.10;;;8.48;;
54123;SDS011;55741;53.252;5.788;2022-07-25T01:18:51;10.82;;;9.43;;
54123;SDS011;55741;53.252;5.788;2022-07-25T01:21:17;9.48;;;8.18;;
54123;SDS011;55741;53.252;5.788;2022-07-25T01:23:44;10.05;;;8.73;;
54123;SDS011;55741;53.252;5.788;2022-07-25T01:26:10;9.20;;;8.30;;
54123;SDS011;55741;53.252;5.788;2022-07-25T01:28:36;9.68;;;7.53;;
54123;SDS011;55741;53.252;5.788;2022-07-25T01:31:02;12.15;;;8.10;;
54123;SDS011;55741;53.252;5.788;2022-07-25T01:33:28;9.68;;;7.65;;
54123;SDS011;55741;53.252;5.788;2022-07-25T01:35:54;9.20;;;8.20;;
54123;SDS011;55741;53.252;5.788;2022-07-25T01:38:20;9.57;;;8.25;;
54123;SDS011;55741;53.252;5.788;2022-07-25T01:40:46;12.38;;;8.10;;
54123;SDS011;55741;53.252;5.788;2022-07-25T01:43:12;8.95;;;8.07;;
54123;SDS011;55741;53.252;5.788;2022-07-25T01:45:38;8.40;;;7.60;;
54123;SDS011;55741;53.252;5.788;2022-07-25T01:48:04;8.75;;;7.85;;
54123;SDS011;55741;53.252;5.788;2022-07-25T01:50:30;8.55;;;7.40;;
54123;SDS011;55741;53.252;5.788;2022-07-25T01:52:56;8.95;;;8.10;;
54123;SDS011;55741;53.252;5.788;2022-07-25T01:55:21;12.70;;;7.05;;
54123;SDS011;55741;53.252;5.788;2022-07-25T01:57:47;9.40;;;6.80;;
54123;SDS011;55741;53.252;5.788;2022-07-25T02:00:13;11.07;;;6.43;;
54123;SDS011;55741;53.252;5.788;2022-07-25T02:02:41;7.20;;;6.35;;
54123;SDS011;55741;53.252;5.788;2022-07-25T02:05:09;7.97;;;6.90;;
54123;SDS011;55741;53.252;5.788;2022-07-25T02:07:37;7.13;;;6.43;;
54123;SDS011;55741;53.252;5.788;2022-07-25T02:10:04;10.48;;;7.25;;
54123;SDS011;55741;53.252;5.788;2022-07-25T02:12:31;9.43;;;6.70;;
54123;SDS011;55741;53.252;5.788;2022-07-25T02:14:57;7.88;;;7.00;;
54123;SDS011;55741;53.252;5.788;2022-07-25T02:17:23;9.93;;;6.97;;
54123;SDS011;55741;53.252;5.788;2022-07-25T02:19:49;8.40;;;7.60;;
54123;SDS011;55741;53.252;5.788;2022-07-25T02:22:15;7.88;;;7.07;;
54123;SDS011;55741;53.252;5.788;2022-07-25T02:24:41;8.48;;;7.03;;
54123;SDS011;55741;53.252;5.788;2022-07-25T02:27:07;8.77;;;7.60;;
54123;SDS011;55741;53.252;5.788;2022-07-25T02:29:34;8.68;;;7.20;;
54123;SDS011;55741;53.252;5.788;2022-07-25T02:32:00;8.50;;;7.43;;
54123;SDS011;55741;53.252;5.788;2022-07-25T02:34:25;9.05;;;7.50;;
54123;SDS011;55741;53.252;5.788;2022-07-25T02:36:51;9.40;;;7.50;;
54123;SDS011;55741;53.252;5.788;2022-07-25T02:39:17;9.77;;;7.63;;
54123;SDS011;55741;53.252;5.788;2022-07-25T02:41:43;9.63;;;7.93;;
54123;SDS011;55741;53.252;5.788;2022-07-25T02:44:09;12.10;;;8.18;;
54123;SDS011;55741;53.252;5.788;2022-07-25T02:46:35;12.00;;;8.38;;
54123;SDS011;55741;53.252;5.788;2022-07-25T02:49:01;11.65;;;8.40;;
54123;SDS011;55741;53.252;5.788;2022-07-25T02:51:27;10.38;;;8.30;;
54123;SDS011;55741;53.252;5.788;2022-07-25T02:53:53;9.75;;;7.63;;
54123;SDS011;55741;53.252;5.788;2022-07-25T02:56:19;11.85;;;8.52;;
54123;SDS011;55741;53.252;5.788;2022-07-25T02:58:45;9.60;;;8.20;;
54123;SDS011;55741;53.252;5.788;2022-07-25T03:01:11;9.35;;;8.15;;
54123;SDS011;55741;53.252;5.788;2022-07-25T03:03:37;11.27;;;8.88;;
54123;SDS011;55741;53.252;5.788;2022-07-25T03:06:03;9.07;;;8.00;;
54123;SDS011;55741;53.252;5.788;2022-07-25T03:08:30;9.80;;;8.77;;
54123;SDS011;55741;53.252;5.788;2022-07-25T03:10:56;11.23;;;9.50;;
54123;SDS011;55741;53.252;5.788;2022-07-25T03:13:22;16.30;;;10.25;;
54123;SDS011;55741;53.252;5.788;2022-07-25T03:15:49;10.43;;;8.88;;
54123;SDS011;55741;53.252;5.788;2022-07-25T03:18:14;11.80;;;9.13;;
54123;SDS011;55741;53.252;5.788;2022-07-25T03:20:40;11.65;;;10.45;;
54123;SDS011;55741;53.252;5.788;2022-07-25T03:23:06;10.40;;;9.30;;
54123;SDS011;55741;53.252;5.788;2022-07-25T03:25:32;11.27;;;9.10;;
54123;SDS011;55741;53.252;5.788;2022-07-25T03:27:58;12.52;;;8.90;;
54123;SDS011;55741;53.252;5.788;2022-07-25T03:30:23;13.10;;;9.85;;
54123;SDS011;55741;53.252;5.788;2022-07-25T03:32:49;10.88;;;9.77;;
54123;SDS011;55741;53.252;5.788;2022-07-25T03:35:15;11.18;;;10.07;;
54123;SDS011;55741;53.252;5.788;2022-07-25T03:37:41;10.18;;;8.55;;
54123;SDS011;55741;53.252;5.788;2022-07-25T03:40:07;10.48;;;9.20;;
54123;SDS011;55741;53.252;5.788;2022-07-25T03:42:33;10.27;;;9.27;;
54123;SDS011;55741;53.252;5.788;2022-07-25T03:44:59;13.75;;;10.13;;
54123;SDS011;55741;53.252;5.788;2022-07-25T03:47:25;10.63;;;9.30;;
54123;SDS011;55741;53.252;5.788;2022-07-25T03:49:52;10.82;;;8.80;;
54123;SDS011;55741;53.252;5.788;2022-07-25T03:52:17;9.77;;;8.73;;
54123;SDS011;55741;53.252;5.788;2022-07-25T03:54:43;10.27;;;8.65;;
54123;SDS011;55741;53.252;5.788;2022-07-25T03:57:09;11.95;;;8.82;;
54123;SDS011;55741;53.252;5.788;2022-07-25T03:59:36;9.38;;;8.38;;
54123;SDS011;55741;53.252;5.788;2022-07-25T04:02:03;10.90;;;8.82;;
54123;SDS011;55741;53.252;5.788;2022-07-25T04:04:32;9.70;;;8.70;;
54123;SDS011;55741;53.252;5.788;2022-07-25T04:06:58;12.13;;;9.40;;
54123;SDS011;55741;53.252;5.788;2022-07-25T04:09:25;10.98;;;8.32;;
54123;SDS011;55741;53.252;5.788;2022-07-25T04:11:51;12.82;;;8.38;;
54123;SDS011;55741;53.252;5.788;2022-07-25T04:14:17;11.05;;;8.93;;
54123;SDS011;55741;53.252;5.788;2022-07-25T04:16:42;11.10;;;9.10;;
54123;SDS011;55741;53.252;5.788;2022-07-25T04:19:08;9.80;;;8.80;;
54123;SDS011;55741;53.252;5.788;2022-07-25T04:21:34;10.48;;;8.52;;
54123;SDS011;55741;53.252;5.788;2022-07-25T04:24:00;12.18;;;8.98;;
54123;SDS011;55741;53.252;5.788;2022-07-25T04:26:26;11.15;;;9.15;;
54123;SDS011;55741;53.252;5.788;2022-07-25T04:28:52;11.93;;;9.32;;
54123;SDS011;55741;53.252;5.788;2022-07-25T04:31:18;15.00;;;8.82;;
54123;SDS011;55741;53.252;5.788;2022-07-25T04:33:44;12.50;;;7.70;;
54123;SDS011;55741;53.252;5.788;2022-07-25T04:36:10;16.30;;;8.80;;
54123;SDS011;55741;53.252;5.788;2022-07-25T04:38:36;10.13;;;9.10;;
54123;SDS011;55741;53.252;5.788;2022-07-25T04:41:02;11.98;;;8.45;;
54123;SDS011;55741;53.252;5.788;2022-07-25T04:43:29;10.57;;;9.40;;
54123;SDS011;55741;53.252;5.788;2022-07-25T04:45:55;12.25;;;8.65;;
54123;SDS011;55741;53.252;5.788;2022-07-25T04:48:20;10.43;;;9.32;;
54123;SDS011;55741;53.252;5.788;2022-07-25T04:50:46;11.48;;;9.25;;
54123;SDS011;55741;53.252;5.788;2022-07-25T04:53:12;9.75;;;8.27;;
54123;SDS011;55741;53.252;5.788;2022-07-25T04:55:38;11.07;;;8.45;;
54123;SDS011;55741;53.252;5.788;2022-07-25T04:58:05;11.40;;;9.23;;
54123;SDS011;55741;53.252;5.788;2022-07-25T05:00:31;11.93;;;9.02;;
54123;SDS011;55741;53.252;5.788;2022-07-25T05:02:57;10.27;;;8.75;;
54123;SDS011;55741;53.252;5.788;2022-07-25T05:05:23;10.02;;;9.02;;
54123;SDS011;55741;53.252;5.788;2022-07-25T05:07:50;13.43;;;10.35;;
54123;SDS011;55741;53.252;5.788;2022-07-25T05:10:23;10.77;;;8.88;;
54123;SDS011;55741;53.252;5.788;2022-07-25T05:12:49;10.15;;;8.98;;
54123;SDS011;55741;53.252;5.788;2022-07-25T05:15:15;8.85;;;7.93;;
54123;SDS011;55741;53.252;5.788;2022-07-25T05:17:41;10.40;;;8.65;;
54123;SDS011;55741;53.252;5.788;2022-07-25T05:20:07;10.75;;;9.65;;
54123;SDS011;55741;53.252;5.788;2022-07-25T05:22:34;10.80;;;9.70;;
54123;SDS011;55741;53.252;5.788;2022-07-25T05:25:00;16.30;;;11.27;;
54123;SDS011;55741;53.252;5.788;2022-07-25T05:27:27;14.95;;;11.57;;
54123;SDS011;55741;53.252;5.788;2022-07-25T05:29:52;13.02;;;11.63;;
54123;SDS011;55741;53.252;5.788;2022-07-25T05:32:18;13.63;;;12.25;;
54123;SDS011;55741;53.252;5.788;2022-07-25T05:34:44;13.88;;;12.45;;
54123;SDS011;55741;53.252;5.788;2022-07-25T05:37:10;14.98;;;13.45;;
54123;SDS011;55741;53.252;5.788;2022-07-25T05:39:36;14.85;;;13.15;;
54123;SDS011;55741;53.252;5.788;2022-07-25T05:42:05;14.98;;;12.80;;
54123;SDS011;55741;53.252;5.788;2022-07-25T05:44:31;18.30;;;12.70;;
54123;SDS011;55741;53.252;5.788;2022-07-25T05:46:57;14.40;;;12.98;;
54123;SDS011;55741;53.252;5.788;2022-07-25T05:49:23;15.07;;;13.00;;
54123;SDS011;55741;53.252;5.788;2022-07-25T05:51:49;16.42;;;13.07;;
54123;SDS011;55741;53.252;5.788;2022-07-25T05:54:16;19.70;;;14.05;;
54123;SDS011;55741;53.252;5.788;2022-07-25T05:56:42;22.20;;;14.07;;
54123;SDS011;55741;53.252;5.788;2022-07-25T05:59:08;22.25;;;13.73;;
54123;SDS011;55741;53.252;5.788;2022-07-25T06:01:33;15.80;;;13.45;;
54123;SDS011;55741;53.252;5.788;2022-07-25T06:03:59;16.42;;;13.98;;
54123;SDS011;55741;53.252;5.788;2022-07-25T06:06:25;16.15;;;14.02;;
54123;SDS011;55741;53.252;5.788;2022-07-25T06:08:51;17.85;;;14.25;;
54123;SDS011;55741;53.252;5.788;2022-07-25T06:11:18;16.40;;;14.32;;
54123;SDS011;55741;53.252;5.788;2022-07-25T06:13:44;15.52;;;13.70;;
54123;SDS011;55741;53.252;5.788;2022-07-25T06:16:10;15.80;;;13.80;;
54123;SDS011;55741;53.252;5.788;2022-07-25T06:18:36;16.17;;;14.48;;
54123;SDS011;55741;53.252;5.788;2022-07-25T06:21:02;17.65;;;14.05;;
54123;SDS011;55741;53.252;5.788;2022-07-25T06:23:28;14.77;;;13.30;;
54123;SDS011;55741;53.252;5.788;2022-07-25T06:25:55;14.80;;;12.55;;
54123;SDS011;55741;53.252;5.788;2022-07-25T06:28:21;15.02;;;13.43;;
54123;SDS011;55741;53.252;5.788;2022-07-25T06:30:47;18.13;;;13.57;;
54123;SDS011;55741;53.252;5.788;2022-07-25T06:33:13;13.50;;;12.00;;
54123;SDS011;55741;53.252;5.788;2022-07-25T06:35:39;11.93;;;10.50;;
54123;SDS011;55741;53.252;5.788;2022-07-25T06:38:06;12.38;;;9.48;;
54123;SDS011;55741;53.252;5.788;2022-07-25T06:40:31;10.45;;;8.18;;
54123;SDS011;55741;53.252;5.788;2022-07-25T06:42:57;11.88;;;8.40;;
54123;SDS011;55741;53.252;5.788;2022-07-25T06:45:23;8.25;;;6.75;;
54123;SDS011;55741;53.252;5.788;2022-07-25T06:47:49;11.65;;;7.25;;
54123;SDS011;55741;53.252;5.788;2022-07-25T06:50:16;11.18;;;5.88;;
54123;SDS011;55741;53.252;5.788;2022-07-25T06:52:43;10.35;;;5.15;;
54123;SDS011;55741;53.252;5.788;2022-07-25T06:55:09;5.10;;;4.40;;
54123;SDS011;55741;53.252;5.788;2022-07-25T06:57:37;8.27;;;3.90;;
54123;SDS011;55741;53.252;5.788;2022-07-25T07:00:05;6.10;;;4.03;;
54123;SDS011;55741;53.252;5.788;2022-07-25T07:02:34;9.20;;;4.15;;
54123;SDS011;55741;53.252;5.788;2022-07-25T07:05:11;6.03;;;3.58;;
54123;SDS011;55741;53.252;5.788;2022-07-25T07:07:36;5.20;;;3.38;;
54123;SDS011;55741;53.252;5.788;2022-07-25T07:10:02;4.30;;;3.28;;
54123;SDS011;55741;53.252;5.788;2022-07-25T07:12:30;5.05;;;3.47;;
54123;SDS011;55741;53.252;5.788;2022-07-25T07:14:56;6.88;;;3.60;;
54123;SDS011;55741;53.252;5.788;2022-07-25T07:17:22;6.03;;;3.80;;
54123;SDS011;55741;53.252;5.788;2022-07-25T07:19:47;8.02;;;3.60;;
54123;SDS011;55741;53.252;5.788;2022-07-25T07:22:13;6.65;;;4.07;;
54123;SDS011;55741;53.252;5.788;2022-07-25T07:24:39;7.25;;;3.90;;
54123;SDS011;55741;53.252;5.788;2022-07-25T07:27:05;5.53;;;3.15;;
54123;SDS011;55741;53.252;5.788;2022-07-25T07:29:31;8.20;;;3.08;;
54123;SDS011;55741;53.252;5.788;2022-07-25T07:31:57;7.10;;;2.90;;
54123;SDS011;55741;53.252;5.788;2022-07-25T07:34:22;4.97;;;3.03;;
54123;SDS011;55741;53.252;5.788;2022-07-25T07:36:48;5.13;;;3.05;;
54123;SDS011;55741;53.252;5.788;2022-07-25T07:39:14;7.18;;;2.70;;
54123;SDS011;55741;53.252;5.788;2022-07-25T07:41:40;5.05;;;2.65;;
54123;SDS011;55741;53.252;5.788;2022-07-25T07:44:06;6.30;;;2.95;;
54123;SDS011;55741;53.252;5.788;2022-07-25T07:46:32;5.03;;;2.40;;
54123;SDS011;55741;53.252;5.788;2022-07-25T07:48:58;8.98;;;2.90;;
54123;SDS011;55741;53.252;5.788;2022-07-25T07:51:24;7.00;;;2.65;;
54123;SDS011;55741;53.252;5.788;2022-07-25T07:53:50;7.68;;;2.60;;
54123;SDS011;55741;53.252;5.788;2022-07-25T07:56:34;4.77;;;2.57;;
54123;SDS011;55741;53.252;5.788;2022-07-25T07:59:00;7.97;;;2.72;;
54123;SDS011;55741;53.252;5.788;2022-07-25T08:01:26;8.10;;;3.10;;
54123;SDS011;55741;53.252;5.788;2022-07-25T08:03:52;5.70;;;2.92;;
54123;SDS011;55741;53.252;5.788;2022-07-25T08:06:18;5.35;;;3.08;;
54123;SDS011;55741;53.252;5.788;2022-07-25T08:08:43;6.65;;;3.15;;
54123;SDS011;55741;53.252;5.788;2022-07-25T08:11:10;6.70;;;3.10;;
54123;SDS011;55741;53.252;5.788;2022-07-25T08:13:37;5.32;;;2.95;;
54123;SDS011;55741;53.252;5.788;2022-07-25T08:16:03;4.65;;;2.90;;
54123;SDS011;55741;53.252;5.788;2022-07-25T08:18:30;7.68;;;3.10;;
54123;SDS011;55741;53.252;5.788;2022-07-25T08:20:57;6.50;;;3.15;;
54123;SDS011;55741;53.252;5.788;2022-07-25T08:23:24;6.55;;;3.05;;
54123;SDS011;55741;53.252;5.788;2022-07-25T08:25:51;6.15;;;2.80;;
54123;SDS011;55741;53.252;5.788;2022-07-25T08:28:18;7.80;;;2.97;;
54123;SDS011;55741;53.252;5.788;2022-07-25T08:30:44;7.65;;;3.08;;
54123;SDS011;55741;53.252;5.788;2022-07-25T08:33:11;4.88;;;3.10;;
54123;SDS011;55741;53.252;5.788;2022-07-25T08:35:44;6.20;;;2.65;;
54123;SDS011;55741;53.252;5.788;2022-07-25T08:38:12;5.97;;;2.75;;
54123;SDS011;55741;53.252;5.788;2022-07-25T08:40:38;5.60;;;2.45;;
54123;SDS011;55741;53.252;5.788;2022-07-25T08:43:04;6.05;;;2.80;;
54123;SDS011;55741;53.252;5.788;2022-07-25T08:45:30;7.15;;;2.72;;
54123;SDS011;55741;53.252;5.788;2022-07-25T08:47:57;7.10;;;2.78;;
54123;SDS011;55741;53.252;5.788;2022-07-25T08:50:27;9.30;;;2.70;;
54123;SDS011;55741;53.252;5.788;2022-07-25T08:52:54;7.88;;;2.90;;
54123;SDS011;55741;53.252;5.788;2022-07-25T08:55:20;8.82;;;3.05;;
54123;SDS011;55741;53.252;5.788;2022-07-25T08:57:49;10.10;;;2.53;;
54123;SDS011;55741;53.252;5.788;2022-07-25T09:00:18;7.88;;;3.00;;
54123;SDS011;55741;53.252;5.788;2022-07-25T09:02:53;12.60;;;4.05;;
54123;SDS011;55741;53.252;5.788;2022-07-25T09:05:28;9.73;;;2.90;;
54123;SDS011;55741;53.252;5.788;2022-07-25T09:07:56;8.60;;;2.97;;
54123;SDS011;55741;53.252;5.788;2022-07-25T09:10:23;8.98;;;3.17;;
54123;SDS011;55741;53.252;5.788;2022-07-25T09:12:55;7.63;;;3.22;;
54123;SDS011;55741;53.252;5.788;2022-07-25T09:15:28;9.77;;;3.03;;
54123;SDS011;55741;53.252;5.788;2022-07-25T09:17:56;9.45;;;2.95;;
54123;SDS011;55741;53.252;5.788;2022-07-25T09:23:06;9.02;;;3.55;;
54123;SDS011;55741;53.252;5.788;2022-07-25T09:25:33;7.75;;;2.88;;
54123;SDS011;55741;53.252;5.788;2022-07-25T09:28:12;10.68;;;3.58;;
54123;SDS011;55741;53.252;5.788;2022-07-25T09:30:39;11.55;;;3.20;;
54123;SDS011;55741;53.252;5.788;2022-07-25T09:33:16;9.57;;;3.15;;
54123;SDS011;55741;53.252;5.788;2022-07-25T09:35:42;11.68;;;3.58;;
54123;SDS011;55741;53.252;5.788;2022-07-25T09:38:12;7.82;;;2.88;;
54123;SDS011;55741;53.252;5.788;2022-07-25T09:40:39;12.80;;;3.13;;
54123;SDS011;55741;53.252;5.788;2022-07-25T09:43:06;10.38;;;3.30;;
54123;SDS011;55741;53.252;5.788;2022-07-25T09:45:32;8.52;;;3.25;;
54123;SDS011;55741;53.252;5.788;2022-07-25T09:47:59;12.98;;;3.58;;
54123;SDS011;55741;53.252;5.788;2022-07-25T09:50:28;8.93;;;3.20;;
54123;SDS011;55741;53.252;5.788;2022-07-25T09:52:56;11.25;;;3.35;;
54123;SDS011;55741;53.252;5.788;2022-07-25T09:55:24;8.63;;;3.00;;
54123;SDS011;55741;53.252;5.788;2022-07-25T09:57:49;11.70;;;3.47;;
54123;SDS011;55741;53.252;5.788;2022-07-25T10:00:19;12.23;;;3.53;;
54123;SDS011;55741;53.252;5.788;2022-07-25T10:07:54;14.32;;;3.65;;
54123;SDS011;55741;53.252;5.788;2022-07-25T10:10:28;12.82;;;4.05;;
54123;SDS011;55741;53.252;5.788;2022-07-25T10:13:00;8.13;;;3.15;;
54123;SDS011;55741;53.252;5.788;2022-07-25T10:18:08;10.07;;;3.53;;
54123;SDS011;55741;53.252;5.788;2022-07-25T10:20:34;9.63;;;3.15;;
54123;SDS011;55741;53.252;5.788;2022-07-25T10:23:00;12.63;;;3.53;;
54123;SDS011;55741;53.252;5.788;2022-07-25T10:25:26;10.13;;;3.85;;
54123;SDS011;55741;53.252;5.788;2022-07-25T10:27:53;9.35;;;3.33;;
54123;SDS011;55741;53.252;5.788;2022-07-25T10:30:26;7.78;;;2.92;;
54123;SDS011;55741;53.252;5.788;2022-07-25T10:32:58;10.07;;;3.20;;
54123;SDS011;55741;53.252;5.788;2022-07-25T10:35:25;12.85;;;3.10;;
54123;SDS011;55741;53.252;5.788;2022-07-25T10:37:53;12.43;;;4.03;;
54123;SDS011;55741;53.252;5.788;2022-07-25T10:40:27;9.27;;;3.17;;
54123;SDS011;55741;53.252;5.788;2022-07-25T10:42:59;10.40;;;2.95;;
54123;SDS011;55741;53.252;5.788;2022-07-25T10:48:24;7.85;;;2.90;;
54123;SDS011;55741;53.252;5.788;2022-07-25T10:50:59;9.82;;;3.05;;
54123;SDS011;55741;53.252;5.788;2022-07-25T10:58:44;7.95;;;3.38;;
54123;SDS011;55741;53.252;5.788;2022-07-25T11:01:29;8.60;;;3.13;;
54123;SDS011;55741;53.252;5.788;2022-07-25T11:03:57;9.52;;;2.88;;
54123;SDS011;55741;53.252;5.788;2022-07-25T11:08:54;11.82;;;3.65;;
54123;SDS011;55741;53.252;5.788;2022-07-25T11:11:31;11.30;;;3.53;;
54123;SDS011;55741;53.252;5.788;2022-07-25T11:13:58;10.85;;;3.95;;
54123;SDS011;55741;53.252;5.788;2022-07-25T11:16:27;14.57;;;3.92;;
54123;SDS011;55741;53.252;5.788;2022-07-25T11:18:53;7.97;;;2.55;;
54123;SDS011;55741;53.252;5.788;2022-07-25T11:21:19;12.50;;;4.07;;
54123;SDS011;55741;53.252;5.788;2022-07-25T11:23:51;8.65;;;2.90;;
54123;SDS011;55741;53.252;5.788;2022-07-25T11:26:17;10.73;;;3.67;;
54123;SDS011;55741;53.252;5.788;2022-07-25T11:28:47;12.07;;;3.28;;
54123;SDS011;55741;53.252;5.788;2022-07-25T11:31:14;12.40;;;3.55;;
54123;SDS011;55741;53.252;5.788;2022-07-25T11:33:42;13.40;;;3.25;;
54123;SDS011;55741;53.252;5.788;2022-07-25T11:36:10;12.88;;;4.18;;
54123;SDS011;55741;53.252;5.788;2022-07-25T11:38:37;11.40;;;3.25;;
54123;SDS011;55741;53.252;5.788;2022-07-25T11:41:05;10.43;;;3.80;;
54123;SDS011;55741;53.252;5.788;2022-07-25T11:43:32;10.10;;;3.15;;
54123;SDS011;55741;53.252;5.788;2022-07-25T11:46:02;8.77;;;2.80;;
54123;SDS011;55741;53.252;5.788;2022-07-25T11:48:38;10.63;;;3.35;;
54123;SDS011;55741;53.252;5.788;2022-07-25T11:51:22;8.95;;;3.33;;
54123;SDS011;55741;53.252;5.788;2022-07-25T11:53:49;10.35;;;3.22;;
54123;SDS011;55741;53.252;5.788;2022-07-25T11:56:19;9.63;;;3.22;;
54123;SDS011;55741;53.252;5.788;2022-07-25T11:58:56;10.93;;;3.40;;
54123;SDS011;55741;53.252;5.788;2022-07-25T12:01:32;9.90;;;3.22;;
54123;SDS011;55741;53.252;5.788;2022-07-25T12:06:42;10.13;;;3.20;;
54123;SDS011;55741;53.252;5.788;2022-07-25T12:09:16;10.02;;;2.83;;
54123;SDS011;55741;53.252;5.788;2022-07-25T12:11:44;9.32;;;3.58;;
54123;SDS011;55741;53.252;5.788;2022-07-25T12:14:11;8.75;;;2.97;;
54123;SDS011;55741;53.252;5.788;2022-07-25T12:16:38;11.13;;;3.40;;
54123;SDS011;55741;53.252;5.788;2022-07-25T12:19:07;9.77;;;3.13;;
54123;SDS011;55741;53.252;5.788;2022-07-25T12:21:42;11.55;;;3.40;;
54123;SDS011;55741;53.252;5.788;2022-07-25T12:24:08;12.52;;;4.47;;
54123;SDS011;55741;53.252;5.788;2022-07-25T12:26:33;15.00;;;3.55;;
54123;SDS011;55741;53.252;5.788;2022-07-25T12:28:59;13.93;;;3.85;;
54123;SDS011;55741;53.252;5.788;2022-07-25T12:31:26;12.75;;;3.83;;
54123;SDS011;55741;53.252;5.788;2022-07-25T12:33:53;12.65;;;3.53;;
54123;SDS011;55741;53.252;5.788;2022-07-25T12:36:19;13.15;;;3.08;;
54123;SDS011;55741;53.252;5.788;2022-07-25T12:38:45;11.40;;;2.97;;
54123;SDS011;55741;53.252;5.788;2022-07-25T12:41:11;14.65;;;3.17;;
54123;SDS011;55741;53.252;5.788;2022-07-25T12:43:37;11.88;;;3.97;;
54123;SDS011;55741;53.252;5.788;2022-07-25T12:46:04;11.35;;;3.53;;
54123;SDS011;55741;53.252;5.788;2022-07-25T12:48:31;12.25;;;3.63;;
54123;SDS011;55741;53.252;5.788;2022-07-25T12:50:57;12.02;;;3.90;;
54123;SDS011;55741;53.252;5.788;2022-07-25T12:53:23;11.80;;;3.95;;
54123;SDS011;55741;53.252;5.788;2022-07-25T12:55:49;10.38;;;3.72;;
54123;SDS011;55741;53.252;5.788;2022-07-25T12:58:15;10.02;;;3.53;;
54123;SDS011;55741;53.252;5.788;2022-07-25T13:00:42;11.98;;;4.13;;
54123;SDS011;55741;53.252;5.788;2022-07-25T13:03:08;10.95;;;4.07;;
54123;SDS011;55741;53.252;5.788;2022-07-25T13:05:34;12.30;;;3.95;;
54123;SDS011;55741;53.252;5.788;2022-07-25T13:08:02;13.55;;;4.00;;
54123;SDS011;55741;53.252;5.788;2022-07-25T13:10:29;15.23;;;5.18;;
54123;SDS011;55741;53.252;5.788;2022-07-25T13:12:55;14.82;;;4.60;;
54123;SDS011;55741;53.252;5.788;2022-07-25T13:15:21;10.38;;;3.92;;
54123;SDS011;55741;53.252;5.788;2022-07-25T13:17:49;13.38;;;4.30;;
54123;SDS011;55741;53.252;5.788;2022-07-25T13:20:15;13.63;;;4.10;;
54123;SDS011;55741;53.252;5.788;2022-07-25T13:22:40;12.48;;;4.50;;
54123;SDS011;55741;53.252;5.788;2022-07-25T13:25:06;14.73;;;5.40;;
54123;SDS011;55741;53.252;5.788;2022-07-25T13:27:32;14.77;;;3.72;;
54123;SDS011;55741;53.252;5.788;2022-07-25T13:29:58;14.27;;;3.83;;
54123;SDS011;55741;53.252;5.788;2022-07-25T13:32:24;10.70;;;4.10;;
54123;SDS011;55741;53.252;5.788;2022-07-25T13:34:52;12.95;;;3.97;;
54123;SDS011;55741;53.252;5.788;2022-07-25T13:37:18;12.43;;;3.80;;
54123;SDS011;55741;53.252;5.788;2022-07-25T13:39:44;11.88;;;3.65;;
54123;SDS011;55741;53.252;5.788;2022-07-25T13:42:10;13.25;;;4.25;;
54123;SDS011;55741;53.252;5.788;2022-07-25T13:44:36;11.18;;;3.63;;
54123;SDS011;55741;53.252;5.788;2022-07-25T13:47:01;10.48;;;3.88;;
54123;SDS011;55741;53.252;5.788;2022-07-25T13:49:27;11.38;;;3.58;;
54123;SDS011;55741;53.252;5.788;2022-07-25T13:51:55;14.70;;;3.83;;
54123;SDS011;55741;53.252;5.788;2022-07-25T13:54:21;16.67;;;3.63;;
54123;SDS011;55741;53.252;5.788;2022-07-25T13:56:46;16.48;;;4.15;;
54123;SDS011;55741;53.252;5.788;2022-07-25T13:59:12;11.90;;;3.72;;
54123;SDS011;55741;53.252;5.788;2022-07-25T14:01:38;15.50;;;4.70;;
54123;SDS011;55741;53.252;5.788;2022-07-25T14:04:04;14.63;;;4.25;;
54123;SDS011;55741;53.252;5.788;2022-07-25T14:06:30;14.95;;;4.57;;
54123;SDS011;55741;53.252;5.788;2022-07-25T14:08:56;12.10;;;3.53;;
54123;SDS011;55741;53.252;5.788;2022-07-25T14:11:22;13.80;;;4.88;;
54123;SDS011;55741;53.252;5.788;2022-07-25T14:13:48;13.52;;;3.75;;
54123;SDS011;55741;53.252;5.788;2022-07-25T14:16:15;13.65;;;4.30;;
54123;SDS011;55741;53.252;5.788;2022-07-25T14:18:44;13.27;;;4.13;;
54123;SDS011;55741;53.252;5.788;2022-07-25T14:21:10;15.20;;;4.38;;
54123;SDS011;55741;53.252;5.788;2022-07-25T14:23:36;14.18;;;4.18;;
54123;SDS011;55741;53.252;5.788;2022-07-25T14:26:02;14.43;;;4.47;;
54123;SDS011;55741;53.252;5.788;2022-07-25T14:28:28;11.05;;;3.75;;
54123;SDS011;55741;53.252;5.788;2022-07-25T14:30:54;15.25;;;4.53;;
54123;SDS011;55741;53.252;5.788;2022-07-25T14:33:20;15.30;;;4.53;;
54123;SDS011;55741;53.252;5.788;2022-07-25T14:35:46;12.50;;;4.38;;
54123;SDS011;55741;53.252;5.788;2022-07-25T14:38:12;15.57;;;4.38;;
54123;SDS011;55741;53.252;5.788;2022-07-25T14:40:38;17.35;;;5.30;;
54123;SDS011;55741;53.252;5.788;2022-07-25T14:43:04;15.07;;;3.92;;
54123;SDS011;55741;53.252;5.788;2022-07-25T14:45:29;14.07;;;4.25;;
54123;SDS011;55741;53.252;5.788;2022-07-25T14:47:55;13.45;;;3.85;;
54123;SDS011;55741;53.252;5.788;2022-07-25T14:50:21;11.70;;;4.32;;
54123;SDS011;55741;53.252;5.788;2022-07-25T14:52:48;13.75;;;4.07;;
54123;SDS011;55741;53.252;5.788;2022-07-25T14:55:14;11.75;;;3.50;;
54123;SDS011;55741;53.252;5.788;2022-07-25T14:57:39;11.75;;;3.80;;
54123;SDS011;55741;53.252;5.788;2022-07-25T15:00:08;14.60;;;4.22;;